N680CL KPDK-KNEW
Flight info
| Callsign | N680CL |
|---|---|
| Flight time | 1h 10m |
| Altitude | 41000 |
| Route | WEONE GRGIA SJI MNSTR1 |
| Aircraft | C68A/M-SDFGHRWY/SB1 |
Departure
| Time | 2026-04-26 17:16 |
|---|---|
| Airport | DeKalb Peachtree Airport (KPDK) |
Arrival
| Time | 2026-04-26 18:27 |
|---|---|
| Airport | Lakefront Airport (KNEW) |
| Time | Latitude | Longitude | Altitude | Speed | Heading |
|---|---|---|---|---|---|
| 2026-04-26 16:59 | 33.88094 | -84.30265 | 992 ft | 0 kts | 89° |
| 2026-04-26 17:09 | 33.88094 | -84.30252 | 997 ft | 6 kts | 90° |
| 2026-04-26 17:09 | 33.88058 | -84.30216 | 992 ft | 7 kts | 187° |
| 2026-04-26 17:10 | 33.88014 | -84.30217 | 992 ft | 8 kts | 156° |
| 2026-04-26 17:10 | 33.88000 | -84.30160 | 992 ft | 7 kts | 66° |
| 2026-04-26 17:10 | 33.88053 | -84.30129 | 992 ft | 10 kts | 21° |
| 2026-04-26 17:10 | 33.88125 | -84.30097 | 996 ft | 12 kts | 20° |
| 2026-04-26 17:11 | 33.88206 | -84.30061 | 992 ft | 13 kts | 20° |
| 2026-04-26 17:11 | 33.88295 | -84.30020 | 994 ft | 14 kts | 20° |
| 2026-04-26 17:11 | 33.88384 | -84.29981 | 992 ft | 13 kts | 20° |
| 2026-04-26 17:11 | 33.88453 | -84.29940 | 992 ft | 9 kts | 62° |
| 2026-04-26 17:12 | 33.88429 | -84.29813 | 994 ft | 6 kts | 110° |
| 2026-04-26 17:12 | 33.88426 | -84.29802 | 994 ft | 0 kts | 110° |
| 2026-04-26 17:15 | 33.88381 | -84.29719 | 992 ft | 5 kts | 189° |
| 2026-04-26 17:15 | 33.88373 | -84.29722 | 992 ft | 0 kts | 200° |
| 2026-04-26 17:15 | 33.88361 | -84.29727 | 992 ft | 18 kts | 200° |
| 2026-04-26 17:16 | 33.87893 | -84.29937 | 999 ft | 124 kts | 200° |
| 2026-04-26 17:16 | 33.86818 | -84.30422 | 1399 ft | 193 kts | 203° |
| 2026-04-26 17:16 | 33.85674 | -84.31512 | 2494 ft | 226 kts | 238° |
| 2026-04-26 17:16 | 33.85136 | -84.33356 | 3002 ft | 241 kts | 261° |
| 2026-04-26 17:17 | 33.85123 | -84.35318 | 3300 ft | 228 kts | 270° |
| 2026-04-26 17:17 | 33.85187 | -84.37252 | 3310 ft | 236 kts | 270° |
| 2026-04-26 17:17 | 33.85235 | -84.38556 | 3332 ft | 235 kts | 272° |
| 2026-04-26 17:17 | 33.85316 | -84.41146 | 3319 ft | 227 kts | 268° |
| 2026-04-26 17:18 | 33.85298 | -84.42353 | 3562 ft | 212 kts | 266° |
| 2026-04-26 17:18 | 33.85191 | -84.44711 | 4069 ft | 216 kts | 266° |
| 2026-04-26 17:18 | 33.85147 | -84.46551 | 5448 ft | 223 kts | 267° |
| 2026-04-26 17:18 | 33.85104 | -84.48429 | 6862 ft | 225 kts | 267° |
| 2026-04-26 17:19 | 33.84987 | -84.51644 | 9319 ft | 235 kts | 266° |
| 2026-04-26 17:19 | 33.84892 | -84.53615 | 10810 ft | 238 kts | 266° |
| 2026-04-26 17:19 | 33.84783 | -84.55603 | 12152 ft | 244 kts | 264° |
| 2026-04-26 17:20 | 33.84279 | -84.57564 | 13476 ft | 253 kts | 240° |
| 2026-04-26 17:20 | 33.83565 | -84.58695 | 14257 ft | 259 kts | 232° |
| 2026-04-26 17:20 | 33.81925 | -84.60876 | 15807 ft | 266 kts | 230° |
| 2026-04-26 17:20 | 33.80648 | -84.62518 | 16970 ft | 271 kts | 230° |
| 2026-04-26 17:21 | 33.79486 | -84.64310 | 18097 ft | 274 kts | 241° |
| 2026-04-26 17:21 | 33.78516 | -84.66302 | 19090 ft | 278 kts | 243° |
| 2026-04-26 17:21 | 33.77512 | -84.68305 | 20067 ft | 282 kts | 240° |
| 2026-04-26 17:21 | 33.76382 | -84.70267 | 21026 ft | 287 kts | 238° |
| 2026-04-26 17:22 | 33.75234 | -84.72244 | 21978 ft | 291 kts | 239° |
| 2026-04-26 17:22 | 33.74093 | -84.74277 | 22897 ft | 295 kts | 239° |
| 2026-04-26 17:22 | 33.72936 | -84.76338 | 23768 ft | 300 kts | 239° |
| 2026-04-26 17:22 | 33.71759 | -84.78422 | 24558 ft | 303 kts | 239° |
| 2026-04-26 17:23 | 33.70569 | -84.80521 | 25351 ft | 306 kts | 239° |
| 2026-04-26 17:23 | 33.69369 | -84.82648 | 26115 ft | 309 kts | 239° |
| 2026-04-26 17:23 | 33.68156 | -84.84791 | 26859 ft | 312 kts | 239° |
| 2026-04-26 17:23 | 33.66929 | -84.86956 | 27615 ft | 315 kts | 239° |
| 2026-04-26 17:24 | 33.65689 | -84.89144 | 28345 ft | 319 kts | 239° |
| 2026-04-26 17:24 | 33.64437 | -84.91354 | 29059 ft | 322 kts | 240° |
| 2026-04-26 17:24 | 33.63172 | -84.93584 | 29783 ft | 325 kts | 240° |
| 2026-04-26 17:24 | 33.61894 | -84.95836 | 30419 ft | 328 kts | 240° |
| 2026-04-26 17:25 | 33.60604 | -84.98108 | 31027 ft | 330 kts | 240° |
| 2026-04-26 17:25 | 33.59307 | -85.00388 | 31643 ft | 331 kts | 240° |
| 2026-04-26 17:25 | 33.58020 | -85.02652 | 32245 ft | 333 kts | 241° |
| 2026-04-26 17:25 | 33.56695 | -85.04984 | 32832 ft | 335 kts | 241° |
| 2026-04-26 17:26 | 33.55380 | -85.07292 | 33409 ft | 336 kts | 241° |
| 2026-04-26 17:26 | 33.54054 | -85.09618 | 33973 ft | 338 kts | 242° |
| 2026-04-26 17:26 | 33.52807 | -85.11999 | 34448 ft | 336 kts | 248° |
| 2026-04-26 17:26 | 33.51871 | -85.14511 | 34889 ft | 334 kts | 254° |
| 2026-04-26 17:27 | 33.51092 | -85.17139 | 35326 ft | 335 kts | 255° |
| 2026-04-26 17:27 | 33.50106 | -85.20341 | 35857 ft | 337 kts | 254° |
| 2026-04-26 17:27 | 33.49386 | -85.22693 | 36227 ft | 339 kts | 255° |
| 2026-04-26 17:27 | 33.48581 | -85.25356 | 36627 ft | 341 kts | 255° |
| 2026-04-26 17:28 | 33.47770 | -85.28031 | 37029 ft | 342 kts | 255° |
| 2026-04-26 17:28 | 33.46948 | -85.30720 | 37413 ft | 344 kts | 255° |
| 2026-04-26 17:28 | 33.46135 | -85.33382 | 37774 ft | 346 kts | 255° |
| 2026-04-26 17:28 | 33.45309 | -85.36090 | 38143 ft | 347 kts | 255° |
| 2026-04-26 17:29 | 33.44479 | -85.38810 | 38490 ft | 349 kts | 255° |
| 2026-04-26 17:29 | 33.43913 | -85.40660 | 38718 ft | 350 kts | 255° |
| 2026-04-26 17:29 | 33.42797 | -85.44304 | 39015 ft | 354 kts | 255° |
| 2026-04-26 17:29 | 33.41946 | -85.47086 | 39224 ft | 357 kts | 255° |
| 2026-04-26 17:30 | 33.41087 | -85.49885 | 39435 ft | 360 kts | 255° |
| 2026-04-26 17:30 | 33.40230 | -85.52674 | 39644 ft | 363 kts | 255° |
| 2026-04-26 17:30 | 33.39345 | -85.55559 | 39859 ft | 366 kts | 255° |
| 2026-04-26 17:30 | 33.38463 | -85.58428 | 40072 ft | 369 kts | 254° |
| 2026-04-26 17:31 | 33.37572 | -85.61319 | 40267 ft | 372 kts | 254° |
| 2026-04-26 17:31 | 33.36674 | -85.64234 | 40471 ft | 374 kts | 254° |
| 2026-04-26 17:31 | 33.35769 | -85.67170 | 40673 ft | 377 kts | 254° |
| 2026-04-26 17:31 | 33.34859 | -85.70119 | 40864 ft | 380 kts | 254° |
| 2026-04-26 17:32 | 33.33940 | -85.73091 | 41031 ft | 383 kts | 254° |
| 2026-04-26 17:32 | 33.33321 | -85.75094 | 41022 ft | 388 kts | 254° |
| 2026-04-26 17:32 | 33.31124 | -85.82177 | 41020 ft | 385 kts | 254° |
| 2026-04-26 17:33 | 33.29586 | -85.87135 | 41011 ft | 380 kts | 254° |
| 2026-04-26 17:34 | 33.26499 | -85.97063 | 41012 ft | 383 kts | 254° |
| 2026-04-26 17:34 | 33.24648 | -86.02997 | 41020 ft | 385 kts | 254° |
| 2026-04-26 17:35 | 33.22772 | -86.08995 | 41037 ft | 384 kts | 254° |
| 2026-04-26 17:35 | 33.20902 | -86.14967 | 41036 ft | 383 kts | 254° |
| 2026-04-26 17:36 | 33.19021 | -86.20963 | 41044 ft | 382 kts | 254° |
| 2026-04-26 17:36 | 33.17158 | -86.26890 | 41041 ft | 382 kts | 254° |
| 2026-04-26 17:37 | 33.15287 | -86.32826 | 41043 ft | 382 kts | 255° |
| 2026-04-26 17:37 | 33.13416 | -86.38760 | 41040 ft | 382 kts | 255° |
| 2026-04-26 17:38 | 33.10596 | -86.47657 | 41029 ft | 383 kts | 253° |
| 2026-04-26 17:38 | 33.08084 | -86.53327 | 41022 ft | 392 kts | 243° |
| 2026-04-26 17:39 | 33.04600 | -86.58419 | 41013 ft | 402 kts | 232° |
| 2026-04-26 17:39 | 33.00207 | -86.62674 | 41015 ft | 413 kts | 221° |
| 2026-04-26 17:40 | 32.96981 | -86.65180 | 41010 ft | 414 kts | 221° |
| 2026-04-26 17:40 | 32.90579 | -86.70214 | 40995 ft | 415 kts | 221° |
| 2026-04-26 17:41 | 32.85740 | -86.73994 | 40979 ft | 416 kts | 221° |
| 2026-04-26 17:41 | 32.80862 | -86.77804 | 40964 ft | 416 kts | 221° |
| 2026-04-26 17:42 | 32.76024 | -86.81576 | 40953 ft | 415 kts | 221° |
| 2026-04-26 17:42 | 32.71241 | -86.85303 | 40941 ft | 413 kts | 221° |
| 2026-04-26 17:43 | 32.66434 | -86.89042 | 40951 ft | 414 kts | 221° |
| 2026-04-26 17:43 | 32.61585 | -86.92810 | 40967 ft | 417 kts | 221° |
| 2026-04-26 17:44 | 32.57542 | -86.95947 | 40977 ft | 419 kts | 221° |
| 2026-04-26 17:44 | 32.52660 | -86.99729 | 40989 ft | 418 kts | 221° |
| 2026-04-26 17:45 | 32.47796 | -87.03493 | 41006 ft | 417 kts | 221° |
| 2026-04-26 17:45 | 32.42946 | -87.07242 | 41012 ft | 415 kts | 221° |
| 2026-04-26 17:46 | 32.38114 | -87.10973 | 41013 ft | 415 kts | 221° |
| 2026-04-26 17:46 | 32.33277 | -87.14702 | 41008 ft | 418 kts | 221° |
| 2026-04-26 17:47 | 32.29183 | -87.17854 | 40995 ft | 420 kts | 221° |
| 2026-04-26 17:47 | 32.23482 | -87.22237 | 40970 ft | 420 kts | 220° |
| 2026-04-26 17:48 | 32.18605 | -87.25982 | 40955 ft | 417 kts | 221° |
| 2026-04-26 17:48 | 32.13740 | -87.29714 | 40927 ft | 416 kts | 221° |
| 2026-04-26 17:49 | 32.08910 | -87.33415 | 40924 ft | 417 kts | 221° |
| 2026-04-26 17:49 | 32.04016 | -87.37158 | 40934 ft | 419 kts | 221° |
| 2026-04-26 17:50 | 31.99104 | -87.40911 | 40941 ft | 421 kts | 221° |
| 2026-04-26 17:50 | 31.94183 | -87.44664 | 40958 ft | 420 kts | 221° |
| 2026-04-26 17:51 | 31.89282 | -87.48398 | 40977 ft | 418 kts | 221° |
| 2026-04-26 17:51 | 31.84403 | -87.52112 | 40982 ft | 417 kts | 221° |
| 2026-04-26 17:52 | 31.79531 | -87.55815 | 40991 ft | 418 kts | 221° |
| 2026-04-26 17:52 | 31.74659 | -87.59514 | 40992 ft | 420 kts | 221° |
| 2026-04-26 17:53 | 31.69728 | -87.63250 | 40989 ft | 421 kts | 221° |
| 2026-04-26 17:54 | 31.62342 | -87.68844 | 40809 ft | 424 kts | 221° |
| 2026-04-26 17:54 | 31.59860 | -87.70721 | 40444 ft | 423 kts | 221° |
| 2026-04-26 17:54 | 31.57408 | -87.72563 | 40081 ft | 414 kts | 221° |
| 2026-04-26 17:54 | 31.55013 | -87.74367 | 39728 ft | 406 kts | 221° |
| 2026-04-26 17:55 | 31.52649 | -87.76157 | 39378 ft | 401 kts | 221° |
| 2026-04-26 17:55 | 31.50310 | -87.77928 | 39039 ft | 399 kts | 221° |
| 2026-04-26 17:55 | 31.47975 | -87.79686 | 38698 ft | 398 kts | 221° |
| 2026-04-26 17:55 | 31.45647 | -87.81435 | 38310 ft | 396 kts | 221° |
| 2026-04-26 17:56 | 31.43340 | -87.83171 | 37963 ft | 393 kts | 221° |
| 2026-04-26 17:56 | 31.38767 | -87.86615 | 37291 ft | 392 kts | 221° |
| 2026-04-26 17:57 | 31.34157 | -87.90080 | 36612 ft | 399 kts | 220° |
| 2026-04-26 17:57 | 31.31821 | -87.91825 | 36266 ft | 396 kts | 220° |
| 2026-04-26 17:57 | 31.29514 | -87.93555 | 35925 ft | 393 kts | 220° |
| 2026-04-26 17:57 | 31.27185 | -87.95305 | 35582 ft | 391 kts | 220° |
| 2026-04-26 17:58 | 31.20370 | -88.00407 | 34592 ft | 388 kts | 220° |
| 2026-04-26 17:59 | 31.15772 | -88.03852 | 33904 ft | 398 kts | 220° |
| 2026-04-26 17:59 | 31.13436 | -88.05591 | 33532 ft | 397 kts | 220° |
| 2026-04-26 17:59 | 31.11119 | -88.07314 | 33192 ft | 393 kts | 220° |
| 2026-04-26 17:59 | 31.08828 | -88.09026 | 32855 ft | 389 kts | 220° |
| 2026-04-26 18:00 | 31.06552 | -88.10725 | 32523 ft | 386 kts | 220° |
| 2026-04-26 18:00 | 31.04294 | -88.12408 | 32177 ft | 384 kts | 220° |
| 2026-04-26 18:00 | 31.02042 | -88.14085 | 31856 ft | 383 kts | 221° |
| 2026-04-26 18:00 | 30.99799 | -88.15754 | 31528 ft | 383 kts | 221° |
| 2026-04-26 18:01 | 30.97534 | -88.17445 | 31184 ft | 390 kts | 221° |
| 2026-04-26 18:01 | 30.95238 | -88.19154 | 30843 ft | 392 kts | 221° |
| 2026-04-26 18:01 | 30.92939 | -88.20853 | 30502 ft | 388 kts | 221° |
| 2026-04-26 18:01 | 30.90673 | -88.22531 | 30161 ft | 385 kts | 221° |
| 2026-04-26 18:02 | 30.88424 | -88.24206 | 29795 ft | 382 kts | 221° |
| 2026-04-26 18:02 | 30.86945 | -88.25306 | 29574 ft | 380 kts | 221° |
| 2026-04-26 18:02 | 30.84000 | -88.27489 | 29124 ft | 378 kts | 221° |
| 2026-04-26 18:02 | 30.81780 | -88.29133 | 28794 ft | 378 kts | 221° |
| 2026-04-26 18:03 | 30.79566 | -88.30775 | 28467 ft | 377 kts | 221° |
| 2026-04-26 18:03 | 30.77354 | -88.32412 | 28132 ft | 376 kts | 220° |
| 2026-04-26 18:03 | 30.75192 | -88.34094 | 27810 ft | 369 kts | 226° |
| 2026-04-26 18:03 | 30.73325 | -88.36067 | 27487 ft | 359 kts | 234° |
| 2026-04-26 18:04 | 30.71757 | -88.38279 | 27183 ft | 350 kts | 242° |
| 2026-04-26 18:04 | 30.70507 | -88.40663 | 26883 ft | 342 kts | 249° |
| 2026-04-26 18:04 | 30.69434 | -88.43138 | 26587 ft | 343 kts | 249° |
| 2026-04-26 18:05 | 30.67237 | -88.48064 | 25994 ft | 343 kts | 249° |
| 2026-04-26 18:05 | 30.66167 | -88.50494 | 25701 ft | 340 kts | 249° |
| 2026-04-26 18:05 | 30.65075 | -88.52971 | 25398 ft | 339 kts | 249° |
| 2026-04-26 18:05 | 30.64012 | -88.55371 | 25106 ft | 338 kts | 249° |
| 2026-04-26 18:06 | 30.62940 | -88.57789 | 24815 ft | 337 kts | 249° |
| 2026-04-26 18:06 | 30.61867 | -88.60208 | 24521 ft | 336 kts | 249° |
| 2026-04-26 18:06 | 30.60798 | -88.62623 | 24228 ft | 336 kts | 249° |
| 2026-04-26 18:06 | 30.59714 | -88.65072 | 23938 ft | 346 kts | 248° |
| 2026-04-26 18:07 | 30.58602 | -88.67575 | 23634 ft | 349 kts | 248° |
| 2026-04-26 18:07 | 30.57476 | -88.70100 | 23297 ft | 355 kts | 248° |
| 2026-04-26 18:07 | 30.56338 | -88.72658 | 22973 ft | 357 kts | 248° |
| 2026-04-26 18:07 | 30.55584 | -88.74351 | 22756 ft | 356 kts | 248° |
| 2026-04-26 18:08 | 30.54070 | -88.77749 | 22332 ft | 353 kts | 248° |
| 2026-04-26 18:08 | 30.52944 | -88.80276 | 22025 ft | 352 kts | 248° |
| 2026-04-26 18:08 | 30.51877 | -88.82670 | 21732 ft | 350 kts | 248° |
| 2026-04-26 18:08 | 30.50755 | -88.85182 | 21431 ft | 349 kts | 248° |
| 2026-04-26 18:09 | 30.49654 | -88.87648 | 21131 ft | 348 kts | 248° |
| 2026-04-26 18:09 | 30.48543 | -88.90134 | 20828 ft | 347 kts | 248° |
| 2026-04-26 18:09 | 30.47435 | -88.92610 | 20530 ft | 345 kts | 248° |
| 2026-04-26 18:09 | 30.46331 | -88.95078 | 20229 ft | 344 kts | 247° |
| 2026-04-26 18:10 | 30.45228 | -88.97542 | 19931 ft | 343 kts | 247° |
| 2026-04-26 18:10 | 30.44134 | -88.99986 | 19636 ft | 342 kts | 247° |
| 2026-04-26 18:10 | 30.43038 | -89.02427 | 19367 ft | 341 kts | 247° |
| 2026-04-26 18:10 | 30.41947 | -89.04860 | 19076 ft | 340 kts | 247° |
| 2026-04-26 18:11 | 30.40858 | -89.07288 | 18781 ft | 338 kts | 248° |
| 2026-04-26 18:11 | 30.39913 | -89.09764 | 18486 ft | 335 kts | 252° |
| 2026-04-26 18:11 | 30.39013 | -89.12250 | 18182 ft | 334 kts | 251° |
| 2026-04-26 18:11 | 30.38092 | -89.14717 | 17871 ft | 333 kts | 251° |
| 2026-04-26 18:12 | 30.37179 | -89.17172 | 17581 ft | 331 kts | 251° |
| 2026-04-26 18:12 | 30.36282 | -89.19617 | 17290 ft | 329 kts | 251° |
| 2026-04-26 18:12 | 30.35387 | -89.22044 | 17005 ft | 327 kts | 251° |
| 2026-04-26 18:12 | 30.34504 | -89.24429 | 16734 ft | 326 kts | 251° |
| 2026-04-26 18:13 | 30.33611 | -89.26847 | 16441 ft | 327 kts | 251° |
| 2026-04-26 18:13 | 30.32714 | -89.29270 | 16161 ft | 327 kts | 251° |
| 2026-04-26 18:13 | 30.31822 | -89.31678 | 15881 ft | 325 kts | 250° |
| 2026-04-26 18:13 | 30.31232 | -89.33268 | 15704 ft | 324 kts | 250° |
| 2026-04-26 18:14 | 30.30313 | -89.36540 | 15324 ft | 317 kts | 263° |
| 2026-04-26 18:14 | 30.30022 | -89.39057 | 15055 ft | 315 kts | 266° |
| 2026-04-26 18:14 | 30.29806 | -89.41583 | 14725 ft | 315 kts | 268° |
| 2026-04-26 18:14 | 30.29617 | -89.44108 | 14348 ft | 313 kts | 268° |
| 2026-04-26 18:15 | 30.29442 | -89.46605 | 13974 ft | 311 kts | 268° |
| 2026-04-26 18:15 | 30.29270 | -89.49098 | 13590 ft | 309 kts | 268° |
| 2026-04-26 18:15 | 30.29105 | -89.51577 | 13201 ft | 309 kts | 268° |
| 2026-04-26 18:15 | 30.28948 | -89.54052 | 12821 ft | 308 kts | 268° |
| 2026-04-26 18:16 | 30.28800 | -89.56521 | 12445 ft | 308 kts | 268° |
| 2026-04-26 18:16 | 30.28523 | -89.61465 | 11701 ft | 306 kts | 268° |
| 2026-04-26 18:16 | 30.28399 | -89.63900 | 11301 ft | 296 kts | 268° |
| 2026-04-26 18:17 | 30.28288 | -89.66200 | 10880 ft | 280 kts | 268° |
| 2026-04-26 18:17 | 30.28190 | -89.68435 | 10449 ft | 278 kts | 268° |
| 2026-04-26 18:17 | 30.28098 | -89.70674 | 10030 ft | 279 kts | 268° |
| 2026-04-26 18:17 | 30.28015 | -89.72918 | 9586 ft | 278 kts | 268° |
| 2026-04-26 18:18 | 30.27932 | -89.75153 | 9133 ft | 277 kts | 268° |
| 2026-04-26 18:18 | 30.27857 | -89.77362 | 8691 ft | 273 kts | 268° |
| 2026-04-26 18:18 | 30.27805 | -89.79552 | 8265 ft | 271 kts | 268° |
| 2026-04-26 18:18 | 30.27743 | -89.81716 | 7854 ft | 270 kts | 268° |
| 2026-04-26 18:19 | 30.27674 | -89.83883 | 7484 ft | 268 kts | 268° |
| 2026-04-26 18:19 | 30.27610 | -89.86033 | 7122 ft | 267 kts | 268° |
| 2026-04-26 18:19 | 30.27552 | -89.88171 | 6775 ft | 263 kts | 268° |
| 2026-04-26 18:19 | 30.27504 | -89.90242 | 6396 ft | 254 kts | 268° |
| 2026-04-26 18:20 | 30.27457 | -89.92277 | 6002 ft | 252 kts | 268° |
| 2026-04-26 18:20 | 30.27410 | -89.94288 | 5584 ft | 250 kts | 268° |
| 2026-04-26 18:20 | 30.27365 | -89.96245 | 5143 ft | 241 kts | 268° |
| 2026-04-26 18:20 | 30.27352 | -89.96890 | 4999 ft | 237 kts | 269° |
| 2026-04-26 18:21 | 30.27291 | -90.00041 | 4129 ft | 231 kts | 268° |
| 2026-04-26 18:21 | 30.27257 | -90.01889 | 3603 ft | 228 kts | 268° |
| 2026-04-26 18:21 | 30.27242 | -90.03713 | 3089 ft | 226 kts | 268° |
| 2026-04-26 18:21 | 30.26994 | -90.05449 | 2587 ft | 221 kts | 243° |
| 2026-04-26 18:22 | 30.25990 | -90.06723 | 2093 ft | 215 kts | 207° |
| 2026-04-26 18:22 | 30.24612 | -90.06994 | 2019 ft | 193 kts | 169° |
| 2026-04-26 18:22 | 30.23444 | -90.06294 | 2016 ft | 196 kts | 144° |
| 2026-04-26 18:22 | 30.22346 | -90.05388 | 2015 ft | 194 kts | 157° |
| 2026-04-26 18:23 | 30.21019 | -90.05186 | 2018 ft | 194 kts | 181° |
| 2026-04-26 18:23 | 30.19674 | -90.05009 | 2020 ft | 197 kts | 165° |
| 2026-04-26 18:23 | 30.18362 | -90.04553 | 2019 ft | 197 kts | 164° |
| 2026-04-26 18:23 | 30.17032 | -90.04150 | 2017 ft | 198 kts | 167° |
| 2026-04-26 18:24 | 30.15703 | -90.03731 | 2014 ft | 195 kts | 165° |
| 2026-04-26 18:24 | 30.14403 | -90.03328 | 2018 ft | 190 kts | 166° |
| 2026-04-26 18:24 | 30.13186 | -90.03088 | 2005 ft | 169 kts | 181° |
| 2026-04-26 18:24 | 30.12067 | -90.03127 | 1969 ft | 161 kts | 178° |
| 2026-04-26 18:25 | 30.10932 | -90.03075 | 1696 ft | 163 kts | 178° |
| 2026-04-26 18:25 | 30.09793 | -90.03032 | 1366 ft | 165 kts | 179° |
| 2026-04-26 18:25 | 30.08648 | -90.03004 | 903 ft | 165 kts | 180° |
| 2026-04-26 18:25 | 30.07672 | -90.02999 | 636 ft | 128 kts | 181° |
| 2026-04-26 18:26 | 30.06766 | -90.03017 | 376 ft | 130 kts | 176° |
| 2026-04-26 18:26 | 30.05837 | -90.02998 | 151 ft | 139 kts | 176° |
| 2026-04-26 18:26 | 30.04923 | -90.02986 | 9 ft | 115 kts | 175° |
| 2026-04-26 18:26 | 30.04316 | -90.02978 | 11 ft | 58 kts | 179° |
| 2026-04-26 18:27 | 30.04061 | -90.02974 | 11 ft | 26 kts | 179° |
| 2026-04-26 18:27 | 30.04006 | -90.02937 | 10 ft | 6 kts | 91° |
| 2026-04-26 18:27 | 30.04007 | -90.02905 | 10 ft | 5 kts | 90° |
| 2026-04-26 18:27 | 30.03999 | -90.02869 | 9 ft | 6 kts | 137° |
| 2026-04-26 18:28 | 30.03902 | -90.02862 | 9 ft | 14 kts | 178° |
| 2026-04-26 18:28 | 30.03811 | -90.02860 | 9 ft | 13 kts | 179° |
| 2026-04-26 18:28 | 30.03749 | -90.02858 | 9 ft | 12 kts | 178° |
| 2026-04-26 18:28 | 30.03709 | -90.02825 | 9 ft | 10 kts | 99° |
| 2026-04-26 18:29 | 30.03711 | -90.02671 | 9 ft | 14 kts | 90° |
| 2026-04-26 18:29 | 30.03701 | -90.02627 | 9 ft | 7 kts | 145° |
| 2026-04-26 18:29 | 30.03670 | -90.02583 | 9 ft | 10 kts | 89° |
| 2026-04-26 18:29 | 30.03671 | -90.02492 | 10 ft | 11 kts | 90° |
| 2026-04-26 18:30 | 30.03659 | -90.02456 | 9 ft | 1 kts | 172° |
| 2026-04-26 18:30 | 30.03644 | -90.02475 | 9 ft | 5 kts | 235° |
| 2026-04-26 18:30 | 30.03640 | -90.02484 | 9 ft | 0 kts | 251° |